Time;durP1;ratioP1;P1;durP2;ratioP2;P2;SDS_P1;SDS_P2;PMS_P1;PMS_P2;Temp;Humidity;BMP_temperature;BMP_pressure;BME280_temperature;BME280_humidity;BME280_pressure;Samples;Min_cycle;Max_cycle;Signal;HPM_P1;HPM_P2
2022/12/24 00:01:34;;;;;;;0.80;0.80;;;-8.80;99.90;;;;;;5090757;28;20196;-69
2022/12/24 00:04:00;;;;;;;0.90;0.90;;;-8.70;99.90;;;;;;5090845;28;20246;-68
2022/12/24 00:06:26;;;;;;;0.90;0.90;;;-8.70;99.90;;;;;;5090724;28;20215;-69
2022/12/24 00:08:52;;;;;;;0.80;0.80;;;-8.70;99.90;;;;;;5072683;28;20200;-70
2022/12/24 00:11:18;;;;;;;0.80;0.80;;;-8.80;99.90;;;;;;5090663;28;20207;-69
2022/12/24 00:13:44;;;;;;;0.90;0.90;;;-8.80;99.90;;;;;;5072708;28;20192;-68
2022/12/24 00:16:10;;;;;;;0.90;0.90;;;-8.80;99.90;;;;;;5075699;28;20214;-67
2022/12/24 00:18:35;;;;;;;0.90;0.90;;;-8.90;99.90;;;;;;5094198;28;20619;-68
2022/12/24 00:21:02;;;;;;;0.70;0.70;;;-8.90;99.90;;;;;;5094479;28;20203;-67
2022/12/24 00:23:28;;;;;;;0.87;0.87;;;-9.00;99.90;;;;;;5094305;28;20557;-68
2022/12/24 00:25:54;;;;;;;0.80;0.80;;;-9.00;99.90;;;;;;5076295;28;20681;-68
2022/12/24 00:28:21;;;;;;;0.80;0.80;;;-9.00;99.90;;;;;;5094151;28;20200;-67
2022/12/24 00:30:47;;;;;;;0.87;0.87;;;-9.00;99.90;;;;;;5094373;28;20199;-67
2022/12/24 00:33:12;;;;;;;0.90;0.90;;;-9.00;99.90;;;;;;5094252;28;20184;-66
2022/12/24 00:35:39;;;;;;;0.80;0.80;;;-9.10;99.90;;;;;;5076712;28;20612;-67
2022/12/24 00:38:06;;;;;;;0.90;0.90;;;-9.00;99.90;;;;;;5073764;28;20192;-68
2022/12/24 00:40:32;;;;;;;0.80;0.80;;;-9.10;99.90;;;;;;5073702;28;20242;-67
2022/12/24 00:42:58;;;;;;;0.90;0.90;;;-9.10;99.90;;;;;;5073926;28;20560;-68
2022/12/24 00:45:26;;;;;;;0.80;0.80;;;-9.10;99.90;;;;;;5073605;28;20197;-67
2022/12/24 00:47:52;;;;;;;0.90;0.90;;;-9.10;99.90;;;;;;5073824;28;20193;-68
2022/12/24 00:50:18;;;;;;;0.90;0.90;;;-9.20;99.90;;;;;;5073539;28;20200;-69
2022/12/24 00:52:44;;;;;;;0.73;0.73;;;-9.20;99.90;;;;;;5073627;28;20205;-68
2022/12/24 00:55:09;;;;;;;0.80;0.80;;;-9.30;99.90;;;;;;5092569;28;20200;-68
2022/12/24 00:57:35;;;;;;;0.90;0.90;;;-9.30;99.90;;;;;;5093589;28;20189;-68
2022/12/24 01:00:01;;;;;;;0.80;0.80;;;-9.30;99.90;;;;;;5093943;28;20286;-67
2022/12/24 01:02:27;;;;;;;0.80;0.80;;;-9.30;99.90;;;;;;5075181;28;20196;-67
2022/12/24 01:05:11;;;;;;;0.90;0.90;;;-9.20;99.90;;;;;;5093691;28;20565;-68
2022/12/24 01:07:39;;;;;;;0.90;0.90;;;-9.20;99.90;;;;;;5093490;28;20192;-66
2022/12/24 01:10:06;;;;;;;1.20;1.20;;;-9.20;99.90;;;;;;5075377;28;20196;-68
2022/12/24 01:12:32;;;;;;;0.80;0.80;;;-9.20;99.90;;;;;;5093474;28;20203;-72
2022/12/24 01:14:58;;;;;;;0.90;0.90;;;-9.20;99.90;;;;;;5093561;28;20189;-70
2022/12/24 01:17:24;;;;;;;0.80;0.80;;;-9.20;99.90;;;;;;5075003;28;20718;-67
2022/12/24 01:19:50;;;;;;;0.80;0.80;;;-9.20;99.90;;;;;;5075183;28;20223;-72
2022/12/24 01:22:15;;;;;;;0.90;0.90;;;-9.20;99.90;;;;;;5074901;28;20246;-68
2022/12/24 01:24:41;;;;;;;0.80;0.80;;;-9.20;99.90;;;;;;5093788;28;20271;-67
2022/12/24 01:27:07;;;;;;;0.80;0.80;;;-9.30;99.90;;;;;;5092083;28;20196;-67
2022/12/24 01:29:33;;;;;;;0.80;0.80;;;-9.30;99.90;;;;;;5092993;28;20681;-67
2022/12/24 01:31:59;;;;;;;0.80;0.80;;;-9.30;99.90;;;;;;5075106;28;20240;-68
2022/12/24 01:34:24;;;;;;;0.90;0.90;;;-9.40;99.90;;;;;;5072748;28;20193;-69
2022/12/24 01:36:50;;;;;;;0.80;0.80;;;-9.40;99.90;;;;;;5072869;28;20196;-68
2022/12/24 01:39:16;;;;;;;0.90;0.90;;;-9.50;99.90;;;;;;5072592;28;20220;-69
2022/12/24 01:44:26;;;;;;;0.90;0.90;;;-9.50;99.90;;;;;;5072773;28;20293;-68
2022/12/24 01:47:24;;;;;;;0.90;0.90;;;-9.50;99.90;;;;;;5072545;28;20193;-69
2022/12/24 01:50:00;;;;;;;0.87;0.87;;;-9.50;99.90;;;;;;5078254;28;20204;-67
2022/12/24 01:52:31;;;;;;;0.90;0.90;;;-9.50;99.90;;;;;;5092459;28;20617;-68
2022/12/24 01:55:12;;;;;;;0.90;0.90;;;-9.50;99.90;;;;;;5074516;28;20543;-69
2022/12/24 01:57:45;;;;;;;0.90;0.90;;;-9.50;99.90;;;;;;5092415;28;20188;-68
2022/12/24 02:00:13;;;;;;;0.90;0.90;;;-9.50;99.90;;;;;;5074312;28;20745;-68
2022/12/24 02:02:45;;;;;;;0.90;0.90;;;-9.50;99.90;;;;;;5098473;22;20270;-71
2022/12/24 02:05:28;;;;;;;0.80;0.80;;;-9.60;99.90;;;;;;5092418;28;20223;-72
2022/12/24 02:07:55;;;;;;;0.90;0.90;;;-9.60;99.90;;;;;;5074523;28;20559;-71
2022/12/24 02:10:21;;;;;;;1.00;1.00;;;-9.60;99.90;;;;;;5073926;28;20196;-72
2022/12/24 02:12:49;;;;;;;0.90;0.90;;;-9.60;99.90;;;;;;5092291;28;20231;-71
2022/12/24 02:15:17;;;;;;;0.93;0.93;;;-9.60;99.90;;;;;;5092243;28;20184;-72
2022/12/24 02:17:54;;;;;;;0.90;0.90;;;-9.60;99.90;;;;;;5092088;28;20190;-72
2022/12/24 02:20:44;;;;;;;0.80;0.80;;;-9.60;99.90;;;;;;5092015;28;20674;-72
2022/12/24 02:23:28;;;;;;;0.90;0.90;;;-9.60;99.90;;;;;;5092077;28;20567;-72
2022/12/24 02:26:25;;;;;;;0.80;0.80;;;-9.60;99.90;;;;;;5092137;28;20791;-72
2022/12/24 02:29:09;;;;;;;0.80;0.80;;;-9.60;99.90;;;;;;5071876;28;20189;-71
2022/12/24 02:31:52;;;;;;;0.90;0.90;;;-9.60;99.90;;;;;;5053541;28;20697;-72
2022/12/24 02:34:30;;;;;;;1.00;1.00;;;-9.60;99.90;;;;;;5071535;28;20195;-72
2022/12/24 02:37:06;;;;;;;0.90;0.90;;;-9.60;99.90;;;;;;5071585;28;20238;-72
2022/12/24 02:39:50;;;;;;;0.90;0.90;;;-9.50;99.90;;;;;;5090574;28;20345;-72
2022/12/24 02:42:21;;;;;;;0.90;0.90;;;-9.50;99.90;;;;;;5091733;28;20223;-72
2022/12/24 02:44:54;;;;;;;0.90;0.90;;;-9.50;99.90;;;;;;5091742;28;20743;-72
2022/12/24 02:47:25;;;;;;;0.80;0.80;;;-9.50;99.90;;;;;;5073045;28;20196;-72
2022/12/24 02:49:50;;;;;;;1.00;1.00;;;-9.50;99.90;;;;;;5091689;28;20192;-72
2022/12/24 02:52:35;;;;;;;1.00;1.00;;;-9.60;99.90;;;;;;5091638;28;20574;-72
2022/12/24 02:55:37;;;;;;;0.90;0.90;;;-9.60;99.90;;;;;;5091745;28;20200;-72
2022/12/24 02:58:21;;;;;;;0.90;0.90;;;-9.70;99.90;;;;;;5073447;28;20197;-72
2022/12/24 03:00:53;;;;;;;0.90;0.90;;;-9.70;99.90;;;;;;5072903;28;20690;-72
2022/12/24 03:03:34;;;;;;;0.90;0.90;;;-9.90;99.90;;;;;;5093355;28;20236;-72
2022/12/24 03:06:23;;;;;;;0.90;0.90;;;-9.90;99.90;;;;;;5073412;28;20252;-75
2022/12/24 03:08:59;;;;;;;0.97;0.97;;;-9.90;99.90;;;;;;5073551;28;20309;-72
2022/12/24 03:11:25;;;;;;;0.80;0.80;;;-9.90;99.90;;;;;;5091262;28;20286;-73
2022/12/24 03:13:53;;;;;;;0.90;0.90;;;-9.90;99.90;;;;;;5091629;28;20296;-73
2022/12/24 03:16:24;;;;;;;0.90;0.90;;;-9.90;99.90;;;;;;5073426;28;20188;-74
2022/12/24 03:18:52;;;;;;;0.90;0.90;;;-9.90;99.90;;;;;;5091744;28;20189;-73
2022/12/24 03:21:31;;;;;;;2.27;2.07;;;-9.80;99.90;;;;;;5091647;28;20200;-72
2022/12/24 03:23:58;;;;;;;1.00;1.00;;;-9.90;99.90;;;;;;5105212;28;20206;-71
2022/12/24 03:26:25;;;;;;;0.90;0.90;;;-9.90;99.90;;;;;;5093730;28;20195;-72
2022/12/24 03:28:51;;;;;;;0.80;0.80;;;-9.90;99.90;;;;;;5093855;28;20703;-72
2022/12/24 03:31:18;;;;;;;0.90;0.90;;;-9.90;99.90;;;;;;5112117;28;20666;-73
2022/12/24 03:33:45;;;;;;;0.90;0.90;;;-10.00;99.90;;;;;;5093857;28;20673;-72
2022/12/24 03:36:11;;;;;;;0.90;0.90;;;-10.00;99.90;;;;;;5093542;28;20202;-73
2022/12/24 03:38:37;;;;;;;0.90;0.90;;;-10.00;99.90;;;;;;5099612;28;20204;-72
2022/12/24 03:41:06;;;;;;;0.87;0.87;;;-10.10;99.90;;;;;;5091204;28;20557;-72
2022/12/24 03:43:32;;;;;;;0.90;0.90;;;-10.10;99.90;;;;;;5090753;28;20336;-72
2022/12/24 03:46:04;;;;;;;0.83;0.83;;;-10.10;99.90;;;;;;5091215;28;20231;-73
2022/12/24 03:48:29;;;;;;;0.80;0.80;;;-10.10;99.90;;;;;;5090964;28;20203;-73
2022/12/24 03:50:55;;;;;;;0.90;0.90;;;-10.10;99.90;;;;;;5093968;28;20196;-72
2022/12/24 03:53:21;;;;;;;0.90;0.90;;;-10.10;99.90;;;;;;5094656;28;20196;-71
2022/12/24 03:55:46;;;;;;;0.90;0.90;;;-10.20;99.90;;;;;;5095041;28;20196;-72
2022/12/24 03:58:12;;;;;;;0.90;0.90;;;-10.20;99.90;;;;;;5076781;28;20655;-72
2022/12/24 04:00:38;;;;;;;0.90;0.90;;;-10.30;99.90;;;;;;5094333;28;20196;-72
2022/12/24 04:03:04;;;;;;;0.90;0.90;;;-10.30;99.90;;;;;;5097212;28;20280;-72
2022/12/24 04:05:29;;;;;;;0.90;0.90;;;-10.30;99.90;;;;;;5115062;28;20236;-72
2022/12/24 04:08:00;;;;;;;0.80;0.80;;;-10.40;99.90;;;;;;5115254;28;20598;-72
2022/12/24 04:10:26;;;;;;;0.83;0.83;;;-10.30;99.90;;;;;;5114794;28;20231;-72
2022/12/24 04:12:54;;;;;;;1.00;1.00;;;-10.30;99.90;;;;;;5115064;28;20284;-72
2022/12/24 04:15:20;;;;;;;0.90;0.90;;;-10.30;99.90;;;;;;5096401;28;20672;-72
2022/12/24 04:17:46;;;;;;;0.90;0.90;;;-10.40;99.90;;;;;;5115043;28;20191;-72
2022/12/24 04:20:12;;;;;;;0.80;0.80;;;-10.40;99.90;;;;;;5096471;28;20844;-72
2022/12/24 04:22:37;;;;;;;0.80;0.80;;;-10.40;99.90;;;;;;5114672;28;20194;-72
2022/12/24 04:25:03;;;;;;;0.87;0.87;;;-10.40;99.90;;;;;;5096630;28;20231;-72
2022/12/24 04:27:30;;;;;;;0.90;0.90;;;-10.40;99.90;;;;;;5096197;28;20658;-72
2022/12/24 04:29:55;;;;;;;0.90;0.90;;;-10.40;99.90;;;;;;5096462;28;20696;-72
2022/12/24 04:32:25;;;;;;;0.80;0.80;;;-10.40;99.90;;;;;;5114342;28;20230;-72
2022/12/24 04:34:50;;;;;;;0.90;0.90;;;-10.40;99.90;;;;;;5096346;28;20191;-72
2022/12/24 04:37:16;;;;;;;0.90;0.90;;;-10.40;99.90;;;;;;5113833;28;20237;-72
2022/12/24 04:39:42;;;;;;;0.90;0.90;;;-10.40;99.90;;;;;;5109312;28;20242;-72
2022/12/24 04:42:07;;;;;;;0.90;0.90;;;-10.40;99.90;;;;;;5114594;28;20195;-71
2022/12/24 04:44:33;;;;;;;0.80;0.80;;;-10.40;99.90;;;;;;5095930;28;20235;-72
2022/12/24 04:46:59;;;;;;;1.00;1.00;;;-10.40;99.90;;;;;;5114654;28;20256;-72
2022/12/24 04:49:25;;;;;;;0.80;0.80;;;-10.40;99.90;;;;;;5114146;28;20624;-72
2022/12/24 04:51:51;;;;;;;0.90;0.90;;;-10.40;99.90;;;;;;5096180;28;20275;-72
2022/12/24 04:54:16;;;;;;;0.90;0.90;;;-10.30;99.90;;;;;;5096072;28;20192;-72
2022/12/24 04:56:42;;;;;;;0.80;0.80;;;-10.30;99.90;;;;;;5095816;28;20743;-72
2022/12/24 04:59:08;;;;;;;0.80;0.80;;;-10.20;99.90;;;;;;5114151;28;20197;-72
2022/12/24 05:01:34;;;;;;;0.80;0.80;;;-10.20;99.90;;;;;;5113428;28;20579;-72
2022/12/24 05:04:02;;;;;;;0.90;0.90;;;-10.20;99.90;;;;;;5095666;28;20235;-72
2022/12/24 05:06:34;;;;;;;0.90;0.90;;;-10.20;99.90;;;;;;5095388;28;20709;-72
2022/12/24 05:08:59;;;;;;;0.80;0.80;;;-10.30;99.90;;;;;;5113950;28;20662;-72
2022/12/24 05:11:29;;;;;;;0.87;0.87;;;-10.30;99.90;;;;;;5113662;28;20279;-72
2022/12/24 05:13:57;;;;;;;1.80;1.70;;;-10.40;99.90;;;;;;5095631;28;20700;-73
2022/12/24 05:16:24;;;;;;;1.00;1.00;;;-10.40;99.90;;;;;;5095105;28;20192;-72
2022/12/24 05:18:50;;;;;;;0.90;0.90;;;-10.40;99.90;;;;;;5095544;28;20202;-72
2022/12/24 05:21:21;;;;;;;0.90;0.90;;;-10.40;99.90;;;;;;5113758;28;20270;-73
2022/12/24 05:26:52;;;;;;;0.90;0.90;;;-10.40;99.90;;;;;;5113330;28;20287;-72
2022/12/24 05:29:17;;;;;;;0.80;0.80;;;-10.40;99.90;;;;;;5094498;28;20210;-72
2022/12/24 05:31:44;;;;;;;0.90;0.90;;;-10.40;99.90;;;;;;5113471;28;20199;-72
2022/12/24 05:34:11;;;;;;;0.90;0.90;;;-10.40;99.90;;;;;;5113375;28;20718;-72
2022/12/24 05:36:37;;;;;;;1.37;1.27;;;-10.40;99.90;;;;;;5113285;28;20219;-72
2022/12/24 05:39:03;;;;;;;0.90;0.90;;;-10.50;99.90;;;;;;5097572;28;20234;-71
2022/12/24 05:41:29;;;;;;;0.87;0.87;;;-10.60;99.90;;;;;;5074494;28;20690;-71
2022/12/24 05:43:55;;;;;;;1.00;1.00;;;-10.60;99.90;;;;;;5074664;28;20227;-71
2022/12/24 05:46:22;;;;;;;0.80;0.80;;;-10.60;99.90;;;;;;5087918;28;20253;-71
2022/12/24 05:48:49;;;;;;;1.10;1.10;;;-10.60;99.90;;;;;;5095030;28;20669;-72
2022/12/24 05:51:18;;;;;;;0.90;0.90;;;-10.60;99.90;;;;;;5112978;28;20295;-72
2022/12/24 05:53:44;;;;;;;0.87;0.87;;;-10.60;99.90;;;;;;5113161;28;20195;-71
2022/12/24 05:56:20;;;;;;;1.20;1.17;;;-10.60;99.90;;;;;;5095091;28;20685;-71
2022/12/24 05:58:46;;;;;;;0.80;0.80;;;-10.60;99.90;;;;;;5094859;28;20681;-72
2022/12/24 06:01:12;;;;;;;0.90;0.90;;;-10.60;99.90;;;;;;5094664;28;20674;-72
2022/12/24 06:03:38;;;;;;;0.90;0.90;;;-10.70;99.90;;;;;;5104445;28;20270;-72
2022/12/24 06:06:18;;;;;;;0.90;0.90;;;-10.60;99.90;;;;;;5074340;28;20238;-72
2022/12/24 06:08:44;;;;;;;1.00;1.00;;;-10.70;99.90;;;;;;5074044;28;20221;-72
2022/12/24 06:11:12;;;;;;;0.90;0.90;;;-10.70;99.90;;;;;;5092281;28;20200;-71
2022/12/24 06:13:42;;;;;;;0.90;0.90;;;-10.70;99.90;;;;;;5091855;28;20192;-72
2022/12/24 06:16:14;;;;;;;0.80;0.80;;;-10.70;99.90;;;;;;5092356;28;20185;-71
2022/12/24 06:18:41;;;;;;;0.90;0.90;;;-10.80;99.90;;;;;;5073944;28;20193;-72
2022/12/24 06:21:07;;;;;;;1.00;1.00;;;-10.80;99.90;;;;;;5074072;28;20204;-72
2022/12/24 06:23:35;;;;;;;0.90;0.90;;;-10.80;99.90;;;;;;5073820;28;20562;-71
2022/12/24 06:26:03;;;;;;;0.83;0.83;;;-10.80;99.90;;;;;;5074088;28;20564;-72
2022/12/24 06:28:31;;;;;;;1.00;1.00;;;-10.80;99.90;;;;;;5073790;28;20568;-71
2022/12/24 06:30:58;;;;;;;0.90;0.90;;;-10.80;99.90;;;;;;5091750;28;20725;-72
2022/12/24 06:33:24;;;;;;;0.90;0.90;;;-10.90;99.90;;;;;;5073514;28;20300;-72
2022/12/24 06:35:52;;;;;;;0.87;0.87;;;-10.90;99.90;;;;;;5092055;28;20644;-71
2022/12/24 06:38:18;;;;;;;1.80;1.70;;;-10.90;99.90;;;;;;5090769;28;20678;-72
2022/12/24 06:40:45;;;;;;;0.90;0.90;;;-10.90;99.90;;;;;;5090760;28;20273;-72
2022/12/24 06:43:12;;;;;;;2.07;1.87;;;-10.90;99.90;;;;;;5073014;28;20667;-71
2022/12/24 06:45:38;;;;;;;0.90;0.90;;;-11.00;99.90;;;;;;5053397;28;20204;-71
2022/12/24 06:48:05;;;;;;;0.90;0.90;;;-10.90;99.90;;;;;;5071567;28;20629;-72
2022/12/24 06:50:32;;;;;;;0.90;0.90;;;-11.00;99.90;;;;;;5063492;28;20918;-71
2022/12/24 06:53:00;;;;;;;1.00;1.00;;;-10.90;99.90;;;;;;5091861;28;20200;-71
2022/12/24 06:55:26;;;;;;;0.90;0.90;;;-11.00;99.90;;;;;;5091441;28;20198;-72
2022/12/24 06:57:52;;;;;;;0.90;0.90;;;-11.10;99.90;;;;;;5091681;28;20271;-72
2022/12/24 07:00:18;;;;;;;0.90;0.90;;;-11.20;99.90;;;;;;5091301;28;20196;-72
2022/12/24 07:02:44;;;;;;;0.90;0.90;;;-11.20;99.90;;;;;;5091556;28;20200;-72
2022/12/24 07:05:11;;;;;;;0.83;0.83;;;-11.20;99.90;;;;;;5091535;28;20207;-71
2022/12/24 07:07:38;;;;;;;0.90;0.90;;;-11.10;99.90;;;;;;5091192;28;20670;-71
2022/12/24 07:10:05;;;;;;;1.67;1.57;;;-11.10;99.90;;;;;;5091465;28;20561;-71
2022/12/24 07:12:31;;;;;;;0.90;0.90;;;-11.10;99.90;;;;;;5091148;28;20211;-70
2022/12/24 07:15:03;;;;;;;0.90;0.90;;;-11.10;99.90;;;;;;5091354;28;20215;-71
2022/12/24 07:17:29;;;;;;;0.87;0.87;;;-11.00;99.90;;;;;;5091196;28;20655;-71
2022/12/24 07:19:54;;;;;;;0.90;0.90;;;-11.00;99.90;;;;;;5091261;28;20317;-71
2022/12/24 07:22:23;;;;;;;0.90;0.90;;;-11.00;99.90;;;;;;5091116;28;20227;-72
2022/12/24 07:24:52;;;;;;;0.87;0.87;;;-11.00;99.90;;;;;;5094134;28;20575;-72
2022/12/24 07:28:01;;;;;;;0.90;0.90;;;-11.00;99.90;;;;;;5095778;28;20655;-73
2022/12/24 07:30:27;;;;;;;0.90;0.90;;;-11.00;99.90;;;;;;5072168;28;20212;-72
2022/12/24 07:32:52;;;;;;;0.90;0.90;;;-11.00;99.90;;;;;;5095391;28;20211;-72
2022/12/24 07:35:18;;;;;;;0.90;0.90;;;-11.10;99.90;;;;;;5095228;28;20196;-73
2022/12/24 07:37:44;;;;;;;0.90;0.90;;;-11.10;99.90;;;;;;5094844;28;20199;-72
2022/12/24 07:40:09;;;;;;;0.80;0.80;;;-11.10;99.90;;;;;;5095921;28;20745;-72
2022/12/24 07:42:35;;;;;;;0.90;0.90;;;-11.20;99.90;;;;;;5075404;28;20619;-71
2022/12/24 07:45:01;;;;;;;0.90;0.90;;;-11.30;99.90;;;;;;5095086;28;20287;-71
2022/12/24 07:47:27;;;;;;;0.90;0.90;;;-11.40;99.90;;;;;;5094830;28;20204;-72
2022/12/24 07:49:53;;;;;;;1.77;1.57;;;-11.30;99.90;;;;;;5095418;28;20231;-72
2022/12/24 07:52:18;;;;;;;1.20;1.20;;;-11.30;99.90;;;;;;5094762;28;20208;-72
2022/12/24 07:54:44;;;;;;;0.80;0.80;;;-11.30;99.90;;;;;;5095331;28;20192;-72
2022/12/24 07:57:10;;;;;;;0.90;0.90;;;-11.20;99.90;;;;;;5094714;28;20200;-73
2022/12/24 07:59:37;;;;;;;0.90;0.90;;;-11.20;99.90;;;;;;5075914;28;20204;-72
2022/12/24 08:02:03;;;;;;;0.90;0.90;;;-11.20;99.90;;;;;;5094987;28;20200;-71
2022/12/24 08:04:31;;;;;;;1.77;1.67;;;-11.20;99.90;;;;;;5094516;28;20220;-72
2022/12/24 08:06:57;;;;;;;0.90;0.90;;;-11.10;99.90;;;;;;5076516;28;20204;-72
2022/12/24 08:09:23;;;;;;;0.87;0.87;;;-11.20;99.90;;;;;;5076567;28;20294;-72
2022/12/24 08:11:48;;;;;;;0.90;0.90;;;-11.10;99.90;;;;;;5076419;28;20212;-73
2022/12/24 08:14:14;;;;;;;0.90;0.90;;;-11.10;99.90;;;;;;5094756;28;20200;-72
2022/12/24 08:16:43;;;;;;;1.00;1.00;;;-11.20;99.90;;;;;;5076060;28;20665;-72
2022/12/24 08:19:08;;;;;;;0.90;0.90;;;-11.20;99.90;;;;;;5094227;28;20273;-73
2022/12/24 08:21:34;;;;;;;0.90;0.90;;;-11.20;99.90;;;;;;5094121;28;20235;-73
2022/12/24 08:24:00;;;;;;;0.80;0.80;;;-11.10;99.90;;;;;;5075973;28;20285;-73
2022/12/24 08:26:26;;;;;;;1.20;1.10;;;-11.10;99.90;;;;;;5094151;28;20206;-72
2022/12/24 08:28:51;;;;;;;0.80;0.80;;;-11.10;99.90;;;;;;5094386;28;20663;-73
2022/12/24 08:31:17;;;;;;;0.90;0.90;;;-11.10;99.90;;;;;;5093992;28;20207;-73
2022/12/24 08:33:43;;;;;;;0.90;0.90;;;-11.10;99.90;;;;;;5075930;28;20285;-73
2022/12/24 08:36:09;;;;;;;0.90;0.90;;;-11.10;99.90;;;;;;5076319;28;20204;-73
2022/12/24 08:38:35;;;;;;;0.90;0.90;;;-11.00;99.90;;;;;;5072194;28;20231;-72
2022/12/24 08:41:00;;;;;;;0.97;0.97;;;-11.00;99.90;;;;;;5072566;28;20559;-71
2022/12/24 08:43:32;;;;;;;0.90;0.90;;;-11.00;99.90;;;;;;5075382;28;20266;-72
2022/12/24 08:46:03;;;;;;;0.90;0.90;;;-11.00;99.90;;;;;;5072829;28;20235;-72
2022/12/24 08:48:29;;;;;;;0.97;0.97;;;-10.90;99.90;;;;;;5073465;28;20736;-72
2022/12/24 08:50:55;;;;;;;0.90;0.90;;;-11.00;99.90;;;;;;5073683;28;20283;-72
2022/12/24 08:53:21;;;;;;;0.90;0.90;;;-10.90;99.90;;;;;;5075114;28;20200;-73
2022/12/24 08:55:47;;;;;;;6.40;3.80;;;-10.90;99.90;;;;;;5094057;28;20200;-72
2022/12/24 08:58:13;;;;;;;2.50;1.83;;;-10.90;99.90;;;;;;5075703;28;20201;-73
2022/12/24 09:00:39;;;;;;;9.00;4.20;;;-10.80;99.90;;;;;;5086617;28;20288;-72
2022/12/24 09:03:07;;;;;;;2.10;1.73;;;-10.80;99.90;;;;;;5073502;28;20236;-72
2022/12/24 09:05:36;;;;;;;1.20;1.13;;;-10.80;99.90;;;;;;5055670;28;20262;-73
2022/12/24 09:08:02;;;;;;;0.90;0.90;;;-10.80;99.90;;;;;;5073594;28;20606;-73
2022/12/24 09:10:30;;;;;;;0.90;0.90;;;-10.80;99.90;;;;;;5073198;28;20451;-73
2022/12/24 09:12:56;;;;;;;0.80;0.80;;;-10.80;99.90;;;;;;5055248;28;20212;-72
2022/12/24 09:15:22;;;;;;;0.80;0.80;;;-10.70;99.90;;;;;;5073265;28;20201;-72
2022/12/24 09:17:48;;;;;;;1.00;1.00;;;-10.70;99.90;;;;;;5055307;28;20203;-73
2022/12/24 09:20:14;;;;;;;1.13;1.07;;;-10.70;99.90;;;;;;5082071;28;20274;-72
2022/12/24 09:22:39;;;;;;;0.90;0.90;;;-10.70;99.90;;;;;;5074947;28;20238;-72
2022/12/24 09:25:06;;;;;;;2.43;2.23;;;-10.70;99.90;;;;;;5093257;28;20600;-73
2022/12/24 09:27:35;;;;;;;1.10;1.10;;;-10.70;99.90;;;;;;5093155;28;20541;-72
2022/12/24 09:30:08;;;;;;;1.10;1.07;;;-10.70;99.90;;;;;;5075170;28;20200;-74
2022/12/24 09:32:33;;;;;;;0.90;0.90;;;-10.70;99.90;;;;;;5091928;28;20591;-72
2022/12/24 09:34:59;;;;;;;0.90;0.90;;;-10.70;99.90;;;;;;5075902;28;20659;-71
2022/12/24 09:37:25;;;;;;;1.00;1.00;;;-10.70;99.90;;;;;;5090818;28;20639;-71
2022/12/24 09:39:51;;;;;;;1.03;1.03;;;-10.70;99.90;;;;;;5054754;28;20201;-72
2022/12/24 09:42:44;;;;;;;2.17;1.97;;;-10.60;99.90;;;;;;5055007;28;20293;-72
2022/12/24 09:45:15;;;;;;;1.93;1.83;;;-10.50;99.90;;;;;;5072516;28;20201;-73
2022/12/24 09:47:46;;;;;;;1.20;1.20;;;-10.40;99.90;;;;;;5071477;28;20201;-70
2022/12/24 09:50:37;;;;;;;0.93;0.93;;;-10.40;99.90;;;;;;5072564;28;20647;-72
2022/12/24 09:53:19;;;;;;;0.87;0.87;;;-10.40;99.90;;;;;;5072397;28;20205;-71
2022/12/24 09:55:55;;;;;;;1.00;1.00;;;-10.40;99.90;;;;;;5072485;28;20628;-71
2022/12/24 09:58:35;;;;;;;1.80;1.70;;;-10.40;99.90;;;;;;5090998;28;20200;-71
2022/12/24 10:01:01;;;;;;;6.27;3.10;;;-10.40;99.90;;;;;;5092804;28;20192;-73
2022/12/24 10:03:27;;;;;;;2.60;2.40;;;-10.40;99.90;;;;;;5092496;28;20227;-71
2022/12/24 10:06:11;;;;;;;1.43;1.33;;;-10.30;99.90;;;;;;5074454;28;20196;-72
2022/12/24 10:08:49;;;;;;;2.73;1.73;;;-10.30;99.90;;;;;;5092254;28;20227;-72
2022/12/24 10:11:18;;;;;;;0.90;0.90;;;-10.30;99.90;;;;;;5092314;28;20295;-72
2022/12/24 10:14:17;;;;;;;3.50;2.60;;;-10.20;99.90;;;;;;5092329;28;20275;-72
2022/12/24 10:16:59;;;;;;;1.00;1.00;;;-10.20;99.90;;;;;;5092542;28;20200;-71
2022/12/24 10:19:35;;;;;;;0.80;0.80;;;-10.10;99.90;;;;;;5073661;28;20342;-72
2022/12/24 10:22:25;;;;;;;0.90;0.90;;;-10.00;99.90;;;;;;5073927;28;20263;-73
2022/12/24 10:25:01;;;;;;;1.10;1.10;;;-9.90;99.90;;;;;;5092029;28;20200;-72
2022/12/24 10:27:35;;;;;;;0.90;0.90;;;-9.90;99.90;;;;;;5073937;28;20191;-72
2022/12/24 10:30:05;;;;;;;1.00;1.00;;;-9.90;99.90;;;;;;5073777;28;20235;-72
2022/12/24 10:32:34;;;;;;;2.13;2.03;;;-9.90;99.90;;;;;;5091714;28;20214;-73
2022/12/24 10:35:15;;;;;;;11.20;3.27;;;-9.90;99.90;;;;;;5084683;28;20204;-73
2022/12/24 10:37:47;;;;;;;3.67;1.57;;;-9.90;99.90;;;;;;5075209;28;20279;-73
2022/12/24 10:40:39;;;;;;;1.10;1.10;;;-9.90;99.90;;;;;;5092031;28;20647;-73
2022/12/24 10:43:25;;;;;;;0.80;0.80;;;-9.90;99.90;;;;;;5091909;28;20291;-71
2022/12/24 10:45:55;;;;;;;1.10;1.10;;;-9.80;99.90;;;;;;5091649;28;20737;-71
2022/12/24 10:48:36;;;;;;;1.10;1.10;;;-9.90;99.90;;;;;;5091592;28;20663;-72
2022/12/24 10:51:05;;;;;;;0.97;0.97;;;-9.90;99.90;;;;;;5073381;28;20202;-72
2022/12/24 10:53:46;;;;;;;0.90;0.90;;;-9.90;99.90;;;;;;5091220;28;20618;-72
2022/12/24 10:56:15;;;;;;;1.00;1.00;;;-9.80;99.90;;;;;;5091635;28;20192;-72
2022/12/24 10:58:59;;;;;;;0.80;0.80;;;-9.80;99.90;;;;;;5091153;28;20283;-71
2022/12/24 11:02:11;;;;;;;1.00;1.00;;;-9.80;99.90;;;;;;5074022;28;20271;-72
2022/12/24 11:04:47;;;;;;;0.80;0.80;;;-9.70;99.90;;;;;;5091261;28;20240;-72
2022/12/24 11:07:19;;;;;;;0.90;0.90;;;-9.70;99.90;;;;;;5073613;28;20745;-72
2022/12/24 11:09:55;;;;;;;0.80;0.80;;;-9.70;99.90;;;;;;5074517;28;20220;-72
2022/12/24 11:12:24;;;;;;;0.90;0.90;;;-9.70;99.90;;;;;;5091035;28;20203;-72
2022/12/24 11:15:04;;;;;;;1.30;1.20;;;-9.70;99.90;;;;;;5073306;28;20662;-73
2022/12/24 11:17:31;;;;;;;0.90;0.90;;;-9.70;99.90;;;;;;5091212;28;20188;-73
2022/12/24 11:19:57;;;;;;;0.90;0.90;;;-9.70;99.90;;;;;;5073116;28;20695;-73
2022/12/24 11:22:32;;;;;;;0.87;0.87;;;-9.60;99.90;;;;;;5091330;28;20196;-73
2022/12/24 11:25:06;;;;;;;0.87;0.87;;;-9.70;99.90;;;;;;5073230;28;20564;-72
2022/12/24 11:27:44;;;;;;;0.90;0.90;;;-9.70;99.90;;;;;;5073222;28;20203;-72
2022/12/24 11:30:24;;;;;;;0.90;0.90;;;-9.70;99.90;;;;;;5091255;28;20196;-71
2022/12/24 11:33:16;;;;;;;1.00;1.00;;;-9.70;99.90;;;;;;5091170;28;20213;-72
2022/12/24 11:35:48;;;;;;;0.90;0.90;;;-9.60;99.90;;;;;;5091266;28;20206;-72
2022/12/24 11:38:21;;;;;;;1.10;1.10;;;-9.60;99.90;;;;;;5069871;28;20720;-73
2022/12/24 11:40:59;;;;;;;0.80;0.80;;;-9.60;99.90;;;;;;5075810;28;20198;-72
2022/12/24 11:43:43;;;;;;;1.00;1.00;;;-9.60;99.90;;;;;;5072822;28;20202;-73
2022/12/24 11:46:26;;;;;;;0.90;0.90;;;-9.60;99.90;;;;;;5073009;28;20207;-73
2022/12/24 11:49:10;;;;;;;0.87;0.87;;;-9.50;99.90;;;;;;5072858;28;20200;-72
2022/12/24 11:51:57;;;;;;;1.00;1.00;;;-9.60;99.90;;;;;;5090873;28;20203;-73
2022/12/24 11:54:28;;;;;;;1.07;1.07;;;-9.60;99.90;;;;;;5079600;28;20201;-73
2022/12/24 11:56:57;;;;;;;0.90;0.90;;;-9.50;99.90;;;;;;5091100;28;20750;-72
2022/12/24 11:59:42;;;;;;;0.90;0.90;;;-9.50;99.90;;;;;;5090917;28;20188;-74
2022/12/24 12:02:32;;;;;;;0.90;0.90;;;-9.50;99.90;;;;;;5090946;28;20192;-73
2022/12/24 12:05:30;;;;;;;0.90;0.90;;;-9.40;99.90;;;;;;5072544;28;20232;-73
2022/12/24 12:08:12;;;;;;;2.20;2.03;;;-9.40;99.90;;;;;;5090207;28;20244;-73
2022/12/24 12:10:47;;;;;;;0.80;0.80;;;-9.40;99.90;;;;;;5091512;28;20275;-72
2022/12/24 12:13:19;;;;;;;0.90;0.90;;;-9.40;99.90;;;;;;5095100;28;20207;-72
2022/12/24 12:16:04;;;;;;;1.20;1.20;;;-9.40;99.90;;;;;;5094960;28;20196;-72
2022/12/24 12:18:46;;;;;;;0.80;0.80;;;-9.30;99.90;;;;;;5094490;28;20184;-72
2022/12/24 12:21:42;;;;;;;0.80;0.80;;;-9.30;99.90;;;;;;5094688;28;20216;-73
2022/12/24 12:24:47;;;;;;;0.90;0.90;;;-9.20;99.90;;;;;;5076367;28;20203;-72
2022/12/24 12:27:40;;;;;;;0.83;0.83;;;-9.10;99.90;;;;;;4976235;28;20191;-72
2022/12/24 12:30:15;;;;;;;0.80;0.80;;;-9.00;99.90;;;;;;4975958;28;20204;-72
2022/12/24 12:32:56;;;;;;;1.43;1.33;;;-8.80;99.90;;;;;;4992267;28;20247;-72
2022/12/24 12:35:26;;;;;;;1.00;1.00;;;-8.70;99.90;;;;;;4992087;28;20703;-73
2022/12/24 12:38:00;;;;;;;1.27;1.17;;;-8.60;99.90;;;;;;4991968;28;20683;-72
2022/12/24 12:40:41;;;;;;;1.00;1.00;;;-8.50;99.90;;;;;;4992138;28;20258;-74
2022/12/24 12:43:22;;;;;;;0.80;0.80;;;-8.40;99.90;;;;;;4996940;28;20200;-73
2022/12/24 12:46:05;;;;;;;0.97;0.97;;;-8.20;99.90;;;;;;4975770;28;20200;-72
2022/12/24 12:48:43;;;;;;;0.90;0.90;;;-8.20;99.90;;;;;;4975542;28;20718;-73
2022/12/24 12:51:29;;;;;;;1.40;1.30;;;-8.10;99.90;;;;;;4992014;28;20682;-72
2022/12/24 12:54:19;;;;;;;0.90;0.90;;;-8.00;99.90;;;;;;4991928;28;20203;-73
2022/12/24 12:56:51;;;;;;;1.03;1.03;;;-8.00;99.90;;;;;;4991957;28;20223;-73
2022/12/24 12:59:42;;;;;;;3.43;2.63;;;-7.90;99.90;;;;;;4991773;28;20199;-72
2022/12/24 13:02:40;;;;;;;0.90;0.90;;;-7.90;99.90;;;;;;5065989;28;20211;-73
2022/12/24 13:05:43;;;;;;;1.20;1.20;;;-7.90;99.90;;;;;;5061461;28;20236;-72
2022/12/24 13:08:18;;;;;;;1.20;1.10;;;-7.80;99.90;;;;;;5092406;28;20647;-72